Terminal Aerodrome Forecast
Issued by NWS

Home | Current Version | Previous Version | Graphics & Text | Print | Product List | Glossary On
Versions: 1 2 3 4 5 6 7 8 9 10 11 12 13 14 15 16 17 18 19
441
FTUS43 KGRB 280520
TAFMTW
TAF
KMTW 280520Z 2806/2906 15006KT 3SM BR SCT003 BKN060
      TEMPO 2806/2809 1/2SM -SHRA FG OVC003
     FM280900 15007KT 1SM BR SCT002 OVC015
      TEMPO 2809/2812 1/4SM -SHRA FG OVC002
     FM281200 17007KT 1 1/2SM BR OVC010
     FM281500 17010KT 3SM BR OVC015
     FM281800 17012KT P6SM VCSH BKN020
     FM282000 17012KT P6SM VCSH BKN040
     FM290000 17010KT P6SM VCSH SCT250
     FM290300 18008KT P6SM VCSH SCT040 BKN070=

USA.gov is the U.S. government's official web portal to all federal, state and local government web resources and services.